sensor_id;sensor_type;location;lat;lon;timestamp;temperature;humidity
19037;DHT22;9651;49.138;8.900;2023-09-19T00:00:02;17.20;99.90
19037;DHT22;9651;49.138;8.900;2023-09-19T00:04:07;17.20;99.90
19037;DHT22;9651;49.138;8.900;2023-09-19T00:08:10;17.20;99.90
19037;DHT22;9651;49.138;8.900;2023-09-19T00:12:14;17.10;99.90
19037;DHT22;9651;49.138;8.900;2023-09-19T00:16:17;17.10;99.90
19037;DHT22;9651;49.138;8.900;2023-09-19T00:20:19;17.10;99.90
19037;DHT22;9651;49.138;8.900;2023-09-19T00:24:23;17.10;99.90
19037;DHT22;9651;49.138;8.900;2023-09-19T00:28:25;17.00;99.90
19037;DHT22;9651;49.138;8.900;2023-09-19T00:32:29;17.00;99.90
19037;DHT22;9651;49.138;8.900;2023-09-19T00:36:32;16.90;99.90
19037;DHT22;9651;49.138;8.900;2023-09-19T00:40:35;16.90;99.90
19037;DHT22;9651;49.138;8.900;2023-09-19T00:44:37;16.90;99.90
19037;DHT22;9651;49.138;8.900;2023-09-19T00:48:42;16.90;99.90
19037;DHT22;9651;49.138;8.900;2023-09-19T00:52:46;17.00;99.90
19037;DHT22;9651;49.138;8.900;2023-09-19T00:56:50;17.00;99.90
19037;DHT22;9651;49.138;8.900;2023-09-19T01:00:55;17.00;99.90
19037;DHT22;9651;49.138;8.900;2023-09-19T01:04:58;16.90;99.90
19037;DHT22;9651;49.138;8.900;2023-09-19T01:09:00;16.90;99.90
19037;DHT22;9651;49.138;8.900;2023-09-19T01:13:11;16.90;99.90
19037;DHT22;9651;49.138;8.900;2023-09-19T01:17:21;16.90;99.90
19037;DHT22;9651;49.138;8.900;2023-09-19T01:21:28;16.90;99.90
19037;DHT22;9651;49.138;8.900;2023-09-19T01:26:06;16.80;99.90
19037;DHT22;9651;49.138;8.900;2023-09-19T01:30:14;16.80;99.90
19037;DHT22;9651;49.138;8.900;2023-09-19T01:34:17;16.80;99.90
19037;DHT22;9651;49.138;8.900;2023-09-19T01:38:19;16.80;99.90
19037;DHT22;9651;49.138;8.900;2023-09-19T01:42:28;16.80;99.90
19037;DHT22;9651;49.138;8.900;2023-09-19T01:46:37;16.90;99.90
19037;DHT22;9651;49.138;8.900;2023-09-19T01:50:45;16.90;99.90
19037;DHT22;9651;49.138;8.900;2023-09-19T01:54:51;16.90;99.90
19037;DHT22;9651;49.138;8.900;2023-09-19T01:58:56;16.90;99.90
19037;DHT22;9651;49.138;8.900;2023-09-19T02:03:00;16.90;99.90
19037;DHT22;9651;49.138;8.900;2023-09-19T02:07:02;16.90;99.90
19037;DHT22;9651;49.138;8.900;2023-09-19T02:11:06;16.80;99.90
19037;DHT22;9651;49.138;8.900;2023-09-19T02:15:08;16.80;99.90
19037;DHT22;9651;49.138;8.900;2023-09-19T02:19:11;16.80;99.90
19037;DHT22;9651;49.138;8.900;2023-09-19T02:23:14;16.80;99.90
19037;DHT22;9651;49.138;8.900;2023-09-19T02:27:17;16.80;99.90
19037;DHT22;9651;49.138;8.900;2023-09-19T02:31:19;16.80;99.90
19037;DHT22;9651;49.138;8.900;2023-09-19T02:35:23;16.90;99.90
19037;DHT22;9651;49.138;8.900;2023-09-19T02:39:26;16.90;99.90
19037;DHT22;9651;49.138;8.900;2023-09-19T02:43:29;16.90;99.90
19037;DHT22;9651;49.138;8.900;2023-09-19T02:47:31;17.00;99.90
19037;DHT22;9651;49.138;8.900;2023-09-19T02:51:35;17.10;99.90
19037;DHT22;9651;49.138;8.900;2023-09-19T02:55:37;17.10;99.90
19037;DHT22;9651;49.138;8.900;2023-09-19T02:59:40;17.20;99.90
19037;DHT22;9651;49.138;8.900;2023-09-19T03:03:45;17.20;99.90
19037;DHT22;9651;49.138;8.900;2023-09-19T03:07:49;17.30;99.90
19037;DHT22;9651;49.138;8.900;2023-09-19T03:11:51;17.30;99.90
19037;DHT22;9651;49.138;8.900;2023-09-19T03:15:55;17.30;99.90
19037;DHT22;9651;49.138;8.900;2023-09-19T03:20:01;17.30;99.90
19037;DHT22;9651;49.138;8.900;2023-09-19T03:24:05;17.30;99.90
19037;DHT22;9651;49.138;8.900;2023-09-19T03:28:07;17.30;99.90
19037;DHT22;9651;49.138;8.900;2023-09-19T03:32:10;17.40;99.90
19037;DHT22;9651;49.138;8.900;2023-09-19T03:36:12;17.30;99.90
19037;DHT22;9651;49.138;8.900;2023-09-19T03:40:16;17.30;99.90
19037;DHT22;9651;49.138;8.900;2023-09-19T03:44:20;17.30;99.90
19037;DHT22;9651;49.138;8.900;2023-09-19T03:48:22;17.30;99.90
19037;DHT22;9651;49.138;8.900;2023-09-19T03:52:26;17.30;99.90
19037;DHT22;9651;49.138;8.900;2023-09-19T03:56:29;17.40;99.90
19037;DHT22;9651;49.138;8.900;2023-09-19T04:00:32;17.30;99.90
19037;DHT22;9651;49.138;8.900;2023-09-19T04:04:35;17.30;99.90
19037;DHT22;9651;49.138;8.900;2023-09-19T04:08:37;17.30;99.90
19037;DHT22;9651;49.138;8.900;2023-09-19T04:12:40;17.30;99.90
19037;DHT22;9651;49.138;8.900;2023-09-19T04:16:42;17.30;99.90
19037;DHT22;9651;49.138;8.900;2023-09-19T04:20:48;17.20;99.90
19037;DHT22;9651;49.138;8.900;2023-09-19T04:24:50;17.20;99.90
19037;DHT22;9651;49.138;8.900;2023-09-19T04:28:53;17.20;99.90
19037;DHT22;9651;49.138;8.900;2023-09-19T04:32:56;17.10;99.90
19037;DHT22;9651;49.138;8.900;2023-09-19T04:36:58;17.10;99.90
19037;DHT22;9651;49.138;8.900;2023-09-19T04:41:01;17.00;99.90
19037;DHT22;9651;49.138;8.900;2023-09-19T04:45:05;17.00;99.90
19037;DHT22;9651;49.138;8.900;2023-09-19T04:49:08;17.00;99.90
19037;DHT22;9651;49.138;8.900;2023-09-19T04:53:09;17.00;99.90
19037;DHT22;9651;49.138;8.900;2023-09-19T04:57:11;17.00;99.90
19037;DHT22;9651;49.138;8.900;2023-09-19T05:01:15;17.00;99.90
19037;DHT22;9651;49.138;8.900;2023-09-19T05:05:17;17.00;99.90
19037;DHT22;9651;49.138;8.900;2023-09-19T05:09:19;17.00;99.90
19037;DHT22;9651;49.138;8.900;2023-09-19T05:13:21;17.00;99.90
19037;DHT22;9651;49.138;8.900;2023-09-19T05:17:25;17.00;99.90
19037;DHT22;9651;49.138;8.900;2023-09-19T05:21:27;17.10;99.90
19037;DHT22;9651;49.138;8.900;2023-09-19T05:25:31;17.10;99.90
19037;DHT22;9651;49.138;8.900;2023-09-19T05:29:37;17.10;99.90
19037;DHT22;9651;49.138;8.900;2023-09-19T05:33:40;17.20;99.90
19037;DHT22;9651;49.138;8.900;2023-09-19T05:37:43;17.20;99.90
19037;DHT22;9651;49.138;8.900;2023-09-19T05:41:45;17.30;99.90
19037;DHT22;9651;49.138;8.900;2023-09-19T05:45:48;17.40;99.90
19037;DHT22;9651;49.138;8.900;2023-09-19T05:49:54;17.40;99.90
19037;DHT22;9651;49.138;8.900;2023-09-19T05:53:55;17.40;99.90
19037;DHT22;9651;49.138;8.900;2023-09-19T05:57:57;17.50;99.90
19037;DHT22;9651;49.138;8.900;2023-09-19T06:02:00;17.60;99.90
19037;DHT22;9651;49.138;8.900;2023-09-19T06:06:03;17.60;99.90
19037;DHT22;9651;49.138;8.900;2023-09-19T06:10:07;17.70;99.90
19037;DHT22;9651;49.138;8.900;2023-09-19T06:14:11;17.80;99.90
19037;DHT22;9651;49.138;8.900;2023-09-19T06:18:13;17.80;99.90
19037;DHT22;9651;49.138;8.900;2023-09-19T06:22:21;17.90;99.90
19037;DHT22;9651;49.138;8.900;2023-09-19T06:26:23;18.00;99.90
19037;DHT22;9651;49.138;8.900;2023-09-19T06:30:27;18.10;99.90
19037;DHT22;9651;49.138;8.900;2023-09-19T06:34:30;18.30;99.90
19037;DHT22;9651;49.138;8.900;2023-09-19T06:38:33;18.50;99.90
19037;DHT22;9651;49.138;8.900;2023-09-19T06:42:36;18.60;99.90
19037;DHT22;9651;49.138;8.900;2023-09-19T06:46:38;18.70;99.90
19037;DHT22;9651;49.138;8.900;2023-09-19T06:50:41;18.80;99.90
19037;DHT22;9651;49.138;8.900;2023-09-19T06:54:46;18.70;99.90
19037;DHT22;9651;49.138;8.900;2023-09-19T06:58:48;18.70;99.90
19037;DHT22;9651;49.138;8.900;2023-09-19T07:02:56;18.50;99.90
19037;DHT22;9651;49.138;8.900;2023-09-19T07:06:59;18.60;99.90
19037;DHT22;9651;49.138;8.900;2023-09-19T07:11:02;18.80;99.90
19037;DHT22;9651;49.138;8.900;2023-09-19T07:15:07;18.90;99.90
19037;DHT22;9651;49.138;8.900;2023-09-19T07:19:10;18.80;99.90
19037;DHT22;9651;49.138;8.900;2023-09-19T07:23:11;18.90;99.90
19037;DHT22;9651;49.138;8.900;2023-09-19T07:27:16;19.00;99.90
19037;DHT22;9651;49.138;8.900;2023-09-19T07:31:19;19.20;99.90
19037;DHT22;9651;49.138;8.900;2023-09-19T07:35:20;19.60;99.90
19037;DHT22;9651;49.138;8.900;2023-09-19T07:39:22;19.80;99.90
19037;DHT22;9651;49.138;8.900;2023-09-19T07:43:25;20.10;99.90
19037;DHT22;9651;49.138;8.900;2023-09-19T07:47:28;20.40;99.90
19037;DHT22;9651;49.138;8.900;2023-09-19T07:51:30;20.70;99.90
19037;DHT22;9651;49.138;8.900;2023-09-19T07:55:33;21.00;99.90
19037;DHT22;9651;49.138;8.900;2023-09-19T07:59:37;21.20;99.90
19037;DHT22;9651;49.138;8.900;2023-09-19T08:03:40;21.80;99.90
19037;DHT22;9651;49.138;8.900;2023-09-19T08:07:44;21.90;99.90
19037;DHT22;9651;49.138;8.900;2023-09-19T08:11:49;22.40;99.90
19037;DHT22;9651;49.138;8.900;2023-09-19T08:15:52;23.00;99.90
19037;DHT22;9651;49.138;8.900;2023-09-19T08:19:54;23.50;99.90
19037;DHT22;9651;49.138;8.900;2023-09-19T08:23:56;23.80;99.90
19037;DHT22;9651;49.138;8.900;2023-09-19T08:27:58;24.10;99.90
19037;DHT22;9651;49.138;8.900;2023-09-19T08:32:04;23.80;99.90
19037;DHT22;9651;49.138;8.900;2023-09-19T08:36:06;23.90;99.90
19037;DHT22;9651;49.138;8.900;2023-09-19T08:40:10;23.80;99.90
19037;DHT22;9651;49.138;8.900;2023-09-19T08:44:13;23.30;99.90
19037;DHT22;9651;49.138;8.900;2023-09-19T08:48:23;23.60;99.90
19037;DHT22;9651;49.138;8.900;2023-09-19T08:52:31;23.60;99.90
19037;DHT22;9651;49.138;8.900;2023-09-19T08:56:35;23.70;99.90
19037;DHT22;9651;49.138;8.900;2023-09-19T09:00:40;23.30;99.90
19037;DHT22;9651;49.138;8.900;2023-09-19T09:04:46;22.90;99.90
19037;DHT22;9651;49.138;8.900;2023-09-19T09:08:50;22.80;99.90
19037;DHT22;9651;49.138;8.900;2023-09-19T09:12:53;22.80;99.90
19037;DHT22;9651;49.138;8.900;2023-09-19T09:16:55;23.00;99.90
19037;DHT22;9651;49.138;8.900;2023-09-19T09:21:01;23.40;99.90
19037;DHT22;9651;49.138;8.900;2023-09-19T09:25:05;23.50;99.90
19037;DHT22;9651;49.138;8.900;2023-09-19T09:29:07;23.30;99.90
19037;DHT22;9651;49.138;8.900;2023-09-19T09:33:09;23.10;99.90
19037;DHT22;9651;49.138;8.900;2023-09-19T09:37:15;23.70;99.90
19037;DHT22;9651;49.138;8.900;2023-09-19T09:41:17;24.30;99.90
19037;DHT22;9651;49.138;8.900;2023-09-19T09:45:28;25.10;99.90
19037;DHT22;9651;49.138;8.900;2023-09-19T09:49:37;25.50;99.90
19037;DHT22;9651;49.138;8.900;2023-09-19T09:53:41;25.80;99.90
19037;DHT22;9651;49.138;8.900;2023-09-19T09:57:46;25.20;99.90
19037;DHT22;9651;49.138;8.900;2023-09-19T10:01:48;25.10;99.90
19037;DHT22;9651;49.138;8.900;2023-09-19T10:05:53;24.90;99.90
19037;DHT22;9651;49.138;8.900;2023-09-19T10:09:57;24.20;99.90
19037;DHT22;9651;49.138;8.900;2023-09-19T10:14:07;23.80;99.90
19037;DHT22;9651;49.138;8.900;2023-09-19T10:18:11;24.50;99.90
19037;DHT22;9651;49.138;8.900;2023-09-19T10:22:19;25.10;99.90
19037;DHT22;9651;49.138;8.900;2023-09-19T10:26:25;26.20;99.90
19037;DHT22;9651;49.138;8.900;2023-09-19T10:30:32;28.00;99.90
19037;DHT22;9651;49.138;8.900;2023-09-19T10:34:41;28.90;99.90
19037;DHT22;9651;49.138;8.900;2023-09-19T10:38:45;30.20;99.50
19037;DHT22;9651;49.138;8.900;2023-09-19T10:42:48;30.90;97.70
19037;DHT22;9651;49.138;8.900;2023-09-19T10:46:51;31.30;96.00
19037;DHT22;9651;49.138;8.900;2023-09-19T10:50:58;32.30;94.10
19037;DHT22;9651;49.138;8.900;2023-09-19T10:55:06;32.60;92.80
19037;DHT22;9651;49.138;8.900;2023-09-19T10:59:13;31.70;92.20
19037;DHT22;9651;49.138;8.900;2023-09-19T11:03:17;30.60;92.50
19037;DHT22;9651;49.138;8.900;2023-09-19T11:07:21;30.40;92.50
19037;DHT22;9651;49.138;8.900;2023-09-19T11:11:46;29.80;92.50
19037;DHT22;9651;49.138;8.900;2023-09-19T11:16:05;29.70;92.50
19037;DHT22;9651;49.138;8.900;2023-09-19T11:20:25;29.70;92.00
19037;DHT22;9651;49.138;8.900;2023-09-19T11:24:36;30.10;91.40
19037;DHT22;9651;49.138;8.900;2023-09-19T11:28:39;30.20;90.60
19037;DHT22;9651;49.138;8.900;2023-09-19T11:33:17;30.60;90.80
19037;DHT22;9651;49.138;8.900;2023-09-19T11:42:42;31.40;89.00
19037;DHT22;9651;49.138;8.900;2023-09-19T11:46:52;31.70;86.20
19037;DHT22;9651;49.138;8.900;2023-09-19T11:50:56;32.10;87.50
19037;DHT22;9651;49.138;8.900;2023-09-19T11:55:00;32.90;85.20
19037;DHT22;9651;49.138;8.900;2023-09-19T11:59:02;33.40;83.50
19037;DHT22;9651;49.138;8.900;2023-09-19T12:03:08;33.00;82.90
19037;DHT22;9651;49.138;8.900;2023-09-19T12:07:13;32.90;82.30
19037;DHT22;9651;49.138;8.900;2023-09-19T12:11:16;33.80;81.60
19037;DHT22;9651;49.138;8.900;2023-09-19T12:15:23;34.80;78.60
19037;DHT22;9651;49.138;8.900;2023-09-19T12:19:29;34.90;77.30
19037;DHT22;9651;49.138;8.900;2023-09-19T12:23:32;34.30;76.60
19037;DHT22;9651;49.138;8.900;2023-09-19T12:27:44;35.00;76.60
19037;DHT22;9651;49.138;8.900;2023-09-19T12:31:51;36.00;73.70
19037;DHT22;9651;49.138;8.900;2023-09-19T12:35:55;35.80;71.90
19037;DHT22;9651;49.138;8.900;2023-09-19T12:40:07;33.40;73.20
19037;DHT22;9651;49.138;8.900;2023-09-19T12:44:18;31.10;76.00
19037;DHT22;9651;49.138;8.900;2023-09-19T12:48:24;30.60;77.70
19037;DHT22;9651;49.138;8.900;2023-09-19T12:52:35;31.10;78.00
19037;DHT22;9651;49.138;8.900;2023-09-19T12:56:43;32.80;77.00
19037;DHT22;9651;49.138;8.900;2023-09-19T13:00:46;33.80;74.20
19037;DHT22;9651;49.138;8.900;2023-09-19T13:04:52;33.10;73.50
19037;DHT22;9651;49.138;8.900;2023-09-19T13:09:07;30.50;76.70
19037;DHT22;9651;49.138;8.900;2023-09-19T13:13:24;28.90;80.20
19037;DHT22;9651;49.138;8.900;2023-09-19T13:17:42;27.90;83.30
19037;DHT22;9651;49.138;8.900;2023-09-19T13:21:44;27.30;85.60
19037;DHT22;9651;49.138;8.900;2023-09-19T13:25:50;26.60;85.30
19037;DHT22;9651;49.138;8.900;2023-09-19T13:29:53;26.10;87.60
19037;DHT22;9651;49.138;8.900;2023-09-19T13:33:55;25.70;88.10
19037;DHT22;9651;49.138;8.900;2023-09-19T13:37:57;25.70;88.40
19037;DHT22;9651;49.138;8.900;2023-09-19T13:41:59;25.80;88.60
19037;DHT22;9651;49.138;8.900;2023-09-19T13:46:02;25.60;89.60
19037;DHT22;9651;49.138;8.900;2023-09-19T13:50:05;25.40;90.00
19037;DHT22;9651;49.138;8.900;2023-09-19T13:54:07;25.30;90.40
19037;DHT22;9651;49.138;8.900;2023-09-19T13:58:09;25.40;90.90
19037;DHT22;9651;49.138;8.900;2023-09-19T14:02:13;25.30;91.00
19037;DHT22;9651;49.138;8.900;2023-09-19T14:06:18;25.10;91.40
19037;DHT22;9651;49.138;8.900;2023-09-19T14:10:20;25.20;91.60
19037;DHT22;9651;49.138;8.900;2023-09-19T14:14:22;25.30;91.80
19037;DHT22;9651;49.138;8.900;2023-09-19T14:18:25;25.20;91.50
19037;DHT22;9651;49.138;8.900;2023-09-19T14:22:27;24.90;91.60
19037;DHT22;9651;49.138;8.900;2023-09-19T14:26:29;25.10;91.90
19037;DHT22;9651;49.138;8.900;2023-09-19T14:30:32;25.20;91.70
19037;DHT22;9651;49.138;8.900;2023-09-19T14:34:35;25.20;91.90
19037;DHT22;9651;49.138;8.900;2023-09-19T14:38:42;25.00;92.00
19037;DHT22;9651;49.138;8.900;2023-09-19T14:42:45;24.90;92.00
19037;DHT22;9651;49.138;8.900;2023-09-19T14:46:46;24.80;91.90
19037;DHT22;9651;49.138;8.900;2023-09-19T14:50:50;24.80;92.00
19037;DHT22;9651;49.138;8.900;2023-09-19T14:54:52;24.90;92.00
19037;DHT22;9651;49.138;8.900;2023-09-19T14:58:54;25.10;92.10
19037;DHT22;9651;49.138;8.900;2023-09-19T15:02:55;25.00;92.00
19037;DHT22;9651;49.138;8.900;2023-09-19T15:06:59;25.00;92.30
19037;DHT22;9651;49.138;8.900;2023-09-19T15:11:01;24.90;92.80
19037;DHT22;9651;49.138;8.900;2023-09-19T15:15:07;24.80;92.90
19037;DHT22;9651;49.138;8.900;2023-09-19T15:19:09;24.90;93.10
19037;DHT22;9651;49.138;8.900;2023-09-19T15:23:13;25.00;92.30
19037;DHT22;9651;49.138;8.900;2023-09-19T15:27:17;24.90;92.50
19037;DHT22;9651;49.138;8.900;2023-09-19T15:31:20;24.80;92.60
19037;DHT22;9651;49.138;8.900;2023-09-19T15:35:22;24.80;92.90
19037;DHT22;9651;49.138;8.900;2023-09-19T15:39:25;24.60;93.30
19037;DHT22;9651;49.138;8.900;2023-09-19T15:43:27;24.60;93.60
19037;DHT22;9651;49.138;8.900;2023-09-19T15:47:29;24.60;93.40
19037;DHT22;9651;49.138;8.900;2023-09-19T15:51:31;24.30;93.40
19037;DHT22;9651;49.138;8.900;2023-09-19T15:55:38;24.30;93.50
19037;DHT22;9651;49.138;8.900;2023-09-19T15:59:41;24.20;93.90
19037;DHT22;9651;49.138;8.900;2023-09-19T16:03:43;24.10;93.40
19037;DHT22;9651;49.138;8.900;2023-09-19T16:07:45;23.90;93.60
19037;DHT22;9651;49.138;8.900;2023-09-19T16:11:49;23.80;94.00
19037;DHT22;9651;49.138;8.900;2023-09-19T16:15:50;23.70;94.50
19037;DHT22;9651;49.138;8.900;2023-09-19T16:19:53;23.60;94.30
19037;DHT22;9651;49.138;8.900;2023-09-19T16:23:56;23.60;94.80
19037;DHT22;9651;49.138;8.900;2023-09-19T16:28:00;23.50;94.90
19037;DHT22;9651;49.138;8.900;2023-09-19T16:32:02;23.30;95.20
19037;DHT22;9651;49.138;8.900;2023-09-19T16:36:07;23.20;95.90
19037;DHT22;9651;49.138;8.900;2023-09-19T16:40:10;23.20;96.10
19037;DHT22;9651;49.138;8.900;2023-09-19T16:44:14;23.00;96.40
19037;DHT22;9651;49.138;8.900;2023-09-19T16:48:16;22.90;96.70
19037;DHT22;9651;49.138;8.900;2023-09-19T16:52:18;22.90;97.20
19037;DHT22;9651;49.138;8.900;2023-09-19T16:56:20;22.80;97.60
19037;DHT22;9651;49.138;8.900;2023-09-19T17:00:23;22.80;98.50
19037;DHT22;9651;49.138;8.900;2023-09-19T17:04:25;22.70;99.00
19037;DHT22;9651;49.138;8.900;2023-09-19T17:08:30;22.60;99.70
19037;DHT22;9651;49.138;8.900;2023-09-19T17:12:32;22.40;99.90
19037;DHT22;9651;49.138;8.900;2023-09-19T17:16:36;22.20;99.90
19037;DHT22;9651;49.138;8.900;2023-09-19T17:20:40;22.00;99.90
19037;DHT22;9651;49.138;8.900;2023-09-19T17:24:42;21.70;99.90
19037;DHT22;9651;49.138;8.900;2023-09-19T17:28:46;21.50;99.90
19037;DHT22;9651;49.138;8.900;2023-09-19T17:32:50;21.30;99.90
19037;DHT22;9651;49.138;8.900;2023-09-19T17:36:52;21.10;99.90
19037;DHT22;9651;49.138;8.900;2023-09-19T17:40:54;20.80;99.90
19037;DHT22;9651;49.138;8.900;2023-09-19T17:44:57;20.60;99.90
19037;DHT22;9651;49.138;8.900;2023-09-19T17:49:00;20.40;99.90
19037;DHT22;9651;49.138;8.900;2023-09-19T17:53:02;20.20;99.90
19037;DHT22;9651;49.138;8.900;2023-09-19T17:57:05;20.00;99.90
19037;DHT22;9651;49.138;8.900;2023-09-19T18:01:09;19.80;99.90
19037;DHT22;9651;49.138;8.900;2023-09-19T18:05:13;19.70;99.90
19037;DHT22;9651;49.138;8.900;2023-09-19T18:09:16;19.60;99.90
19037;DHT22;9651;49.138;8.900;2023-09-19T18:13:19;19.50;99.90
19037;DHT22;9651;49.138;8.900;2023-09-19T18:17:21;19.50;99.90
19037;DHT22;9651;49.138;8.900;2023-09-19T18:21:24;19.40;99.90
19037;DHT22;9651;49.138;8.900;2023-09-19T18:25:27;19.40;99.90
19037;DHT22;9651;49.138;8.900;2023-09-19T18:29:29;19.30;99.90
19037;DHT22;9651;49.138;8.900;2023-09-19T18:33:31;19.20;99.90
19037;DHT22;9651;49.138;8.900;2023-09-19T18:37:34;19.00;99.90
19037;DHT22;9651;49.138;8.900;2023-09-19T18:41:37;18.90;99.90
19037;DHT22;9651;49.138;8.900;2023-09-19T18:45:39;18.80;99.90
19037;DHT22;9651;49.138;8.900;2023-09-19T18:49:41;18.70;99.90
19037;DHT22;9651;49.138;8.900;2023-09-19T18:53:45;18.70;99.90
19037;DHT22;9651;49.138;8.900;2023-09-19T18:57:47;18.60;99.90
19037;DHT22;9651;49.138;8.900;2023-09-19T19:01:49;18.50;99.90
19037;DHT22;9651;49.138;8.900;2023-09-19T19:05:51;18.40;99.90
19037;DHT22;9651;49.138;8.900;2023-09-19T19:09:55;18.40;99.90
19037;DHT22;9651;49.138;8.900;2023-09-19T19:13:57;18.30;99.90
19037;DHT22;9651;49.138;8.900;2023-09-19T19:17:59;18.10;99.90
19037;DHT22;9651;49.138;8.900;2023-09-19T19:22:02;18.00;99.90
19037;DHT22;9651;49.138;8.900;2023-09-19T19:26:06;17.90;99.90
19037;DHT22;9651;49.138;8.900;2023-09-19T19:30:10;17.80;99.90
19037;DHT22;9651;49.138;8.900;2023-09-19T19:34:12;17.70;99.90
19037;DHT22;9651;49.138;8.900;2023-09-19T19:38:14;17.70;99.90
19037;DHT22;9651;49.138;8.900;2023-09-19T19:42:18;17.70;99.90
19037;DHT22;9651;49.138;8.900;2023-09-19T19:46:20;17.70;99.90
19037;DHT22;9651;49.138;8.900;2023-09-19T19:50:22;17.70;99.90
19037;DHT22;9651;49.138;8.900;2023-09-19T19:54:23;17.70;99.90
19037;DHT22;9651;49.138;8.900;2023-09-19T19:58:27;17.80;99.90
19037;DHT22;9651;49.138;8.900;2023-09-19T20:02:29;17.90;99.90
19037;DHT22;9651;49.138;8.900;2023-09-19T20:06:31;18.00;99.90
19037;DHT22;9651;49.138;8.900;2023-09-19T20:10:33;18.00;99.90
19037;DHT22;9651;49.138;8.900;2023-09-19T20:14:39;17.90;99.90
19037;DHT22;9651;49.138;8.900;2023-09-19T20:18:41;17.90;99.90
19037;DHT22;9651;49.138;8.900;2023-09-19T20:22:43;17.90;99.90
19037;DHT22;9651;49.138;8.900;2023-09-19T20:26:45;17.80;99.90
19037;DHT22;9651;49.138;8.900;2023-09-19T20:30:48;17.60;99.90
19037;DHT22;9651;49.138;8.900;2023-09-19T20:34:50;17.50;99.90
19037;DHT22;9651;49.138;8.900;2023-09-19T20:38:52;17.30;99.90
19037;DHT22;9651;49.138;8.900;2023-09-19T20:42:55;17.40;99.90
19037;DHT22;9651;49.138;8.900;2023-09-19T20:47:00;17.40;99.90
19037;DHT22;9651;49.138;8.900;2023-09-19T20:51:05;17.40;99.90
19037;DHT22;9651;49.138;8.900;2023-09-19T20:55:08;17.40;99.90
19037;DHT22;9651;49.138;8.900;2023-09-19T20:59:10;17.50;99.90
19037;DHT22;9651;49.138;8.900;2023-09-19T21:03:14;17.50;99.90
19037;DHT22;9651;49.138;8.900;2023-09-19T21:07:16;17.40;99.90
19037;DHT22;9651;49.138;8.900;2023-09-19T21:11:19;17.40;99.90
19037;DHT22;9651;49.138;8.900;2023-09-19T21:15:21;17.40;99.90
19037;DHT22;9651;49.138;8.900;2023-09-19T21:19:26;17.40;99.90
19037;DHT22;9651;49.138;8.900;2023-09-19T21:23:28;17.30;99.90
19037;DHT22;9651;49.138;8.900;2023-09-19T21:27:30;17.20;99.90
19037;DHT22;9651;49.138;8.900;2023-09-19T21:31:32;17.10;99.90
19037;DHT22;9651;49.138;8.900;2023-09-19T21:35:43;17.00;99.90
19037;DHT22;9651;49.138;8.900;2023-09-19T21:39:45;16.90;99.90
19037;DHT22;9651;49.138;8.900;2023-09-19T21:43:48;16.90;99.90
19037;DHT22;9651;49.138;8.900;2023-09-19T21:47:50;16.90;99.90
19037;DHT22;9651;49.138;8.900;2023-09-19T21:51:53;16.90;99.90
19037;DHT22;9651;49.138;8.900;2023-09-19T21:55:59;16.80;99.90
19037;DHT22;9651;49.138;8.900;2023-09-19T22:00:02;16.70;99.90
19037;DHT22;9651;49.138;8.900;2023-09-19T22:04:12;16.70;99.90
19037;DHT22;9651;49.138;8.900;2023-09-19T22:08:15;16.70;99.90
19037;DHT22;9651;49.138;8.900;2023-09-19T22:12:17;16.60;99.90
19037;DHT22;9651;49.138;8.900;2023-09-19T22:16:19;16.60;99.90
19037;DHT22;9651;49.138;8.900;2023-09-19T22:20:21;16.50;99.90
19037;DHT22;9651;49.138;8.900;2023-09-19T22:24:28;16.50;99.90
19037;DHT22;9651;49.138;8.900;2023-09-19T22:28:32;16.50;99.90
19037;DHT22;9651;49.138;8.900;2023-09-19T22:32:36;16.50;99.90
19037;DHT22;9651;49.138;8.900;2023-09-19T22:36:38;16.40;99.90
19037;DHT22;9651;49.138;8.900;2023-09-19T22:40:44;16.30;99.90
19037;DHT22;9651;49.138;8.900;2023-09-19T22:44:52;16.20;99.90
19037;DHT22;9651;49.138;8.900;2023-09-19T22:48:55;16.20;99.90
19037;DHT22;9651;49.138;8.900;2023-09-19T22:52:57;16.20;99.90
19037;DHT22;9651;49.138;8.900;2023-09-19T22:57:06;16.10;99.90
19037;DHT22;9651;49.138;8.900;2023-09-19T23:01:10;16.10;99.90
19037;DHT22;9651;49.138;8.900;2023-09-19T23:05:17;16.10;99.90
19037;DHT22;9651;49.138;8.900;2023-09-19T23:09:20;16.00;99.90
19037;DHT22;9651;49.138;8.900;2023-09-19T23:13:24;16.00;99.90
19037;DHT22;9651;49.138;8.900;2023-09-19T23:17:28;15.90;99.90
19037;DHT22;9651;49.138;8.900;2023-09-19T23:21:31;15.80;99.90
19037;DHT22;9651;49.138;8.900;2023-09-19T23:25:34;15.80;99.90
19037;DHT22;9651;49.138;8.900;2023-09-19T23:29:46;15.80;99.90
19037;DHT22;9651;49.138;8.900;2023-09-19T23:33:49;15.80;99.90
19037;DHT22;9651;49.138;8.900;2023-09-19T23:37:51;15.60;99.90
19037;DHT22;9651;49.138;8.900;2023-09-19T23:41:53;15.60;99.90
19037;DHT22;9651;49.138;8.900;2023-09-19T23:45:58;15.50;99.90
19037;DHT22;9651;49.138;8.900;2023-09-19T23:50:06;15.40;99.90
19037;DHT22;9651;49.138;8.900;2023-09-19T23:54:11;15.40;99.90
19037;DHT22;9651;49.138;8.900;2023-09-19T23:58:18;15.40;99.90
